Time;durP1;ratioP1;P1;durP2;ratioP2;P2;SDS_P1;SDS_P2;PMS_P1;PMS_P2;Temp;Humidity;BMP_temperature;BMP_pressure;BME280_temperature;BME280_humidity;BME280_pressure;Samples;Min_cycle;Max_cycle;Signal;HPM_P1;HPM_P2
2022/05/19 00:00:26;;;;;;;3.40;1.80;;;;;;;7.49;100.00;99326.66;5151817;27;20395;-50
2022/05/19 00:02:52;;;;;;;6.47;1.70;;;;;;;7.49;100.00;99310.31;5152151;27;20050;-50
2022/05/19 00:05:19;;;;;;;5.75;1.75;;;;;;;7.37;100.00;99347.69;5151838;27;20051;-52
2022/05/19 00:07:45;;;;;;;4.38;1.73;;;;;;;7.34;100.00;99370.19;5151992;27;20051;-51
2022/05/19 00:10:11;;;;;;;2.97;2.00;;;;;;;7.26;100.00;99424.50;5151822;27;20054;-50
2022/05/19 00:12:38;;;;;;;3.15;1.70;;;;;;;7.19;100.00;99434.34;5152087;27;20516;-50
2022/05/19 00:15:05;;;;;;;4.72;1.65;;;;;;;7.18;100.00;99444.44;5151973;27;20055;-51
2022/05/19 00:17:31;;;;;;;4.47;1.98;;;;;;;7.08;100.00;99491.22;5151683;27;20136;-49
2022/05/19 00:19:58;;;;;;;3.45;1.92;;;;;;;6.83;100.00;99558.41;5151913;27;20051;-48
2022/05/19 00:22:24;;;;;;;2.40;1.50;;;;;;;6.94;100.00;99663.22;5151831;27;20178;-49
2022/05/19 00:24:50;;;;;;;2.00;1.75;;;;;;;7.01;100.00;99663.47;5151761;27;20493;-51
2022/05/19 00:27:16;;;;;;;3.22;1.52;;;;;;;6.95;100.00;99651.16;5151458;27;20051;-48
2022/05/19 00:29:42;;;;;;;6.93;2.28;;;;;;;6.90;100.00;99669.63;5151687;27;20061;-48
2022/05/19 00:32:09;;;;;;;7.47;1.88;;;;;;;6.82;100.00;99709.41;5151687;27;20451;-48
2022/05/19 00:34:35;;;;;;;3.20;1.63;;;;;;;6.82;100.00;99747.56;5151856;27;20077;-51
2022/05/19 00:37:03;;;;;;;3.47;1.85;;;;;;;6.80;100.00;99758.03;5151667;27;20051;-48
2022/05/19 00:39:33;;;;;;;2.22;1.42;;;;;;;6.72;100.00;99767.00;5151542;27;20398;-49
2022/05/19 00:44:44;;;;;;;5.18;2.15;;;;;;;6.65;100.00;99813.00;5151125;27;20066;-52
2022/05/19 00:47:17;;;;;;;4.28;2.00;;;;;;;6.62;100.00;99836.25;5151890;27;20476;-52
2022/05/19 00:49:45;;;;;;;3.33;1.92;;;;;;;6.60;100.00;99852.94;5151319;27;20054;-48
2022/05/19 00:52:16;;;;;;;4.32;2.10;;;;;;;6.55;100.00;99874.88;5151438;27;20051;-50
2022/05/19 00:54:46;;;;;;;3.08;1.90;;;;;;;6.52;100.00;99886.41;5151258;27;20143;-50
2022/05/19 00:57:17;;;;;;;5.60;2.42;;;;;;;6.52;100.00;99912.84;5151311;27;20053;-49
2022/05/19 00:59:48;;;;;;;5.30;2.03;;;;;;;6.33;100.00;99933.03;5151132;27;20469;-49
2022/05/19 01:02:19;;;;;;;5.82;2.35;;;;;;;6.19;100.00;100007.78;5151235;27;20047;-49
2022/05/19 01:04:50;;;;;;;7.22;3.00;;;;;;;6.23;100.00;100042.25;5150973;27;20057;-53
2022/05/19 01:07:20;;;;;;;5.35;2.63;;;;;;;6.34;100.00;100042.75;5151166;27;20054;-50
2022/05/19 01:09:48;;;;;;;6.47;2.80;;;;;;;6.30;100.00;100028.19;5151058;27;20466;-50
2022/05/19 01:12:15;;;;;;;4.35;2.47;;;;;;;6.44;100.00;100034.31;5151101;27;20078;-48
2022/05/19 01:14:41;;;;;;;4.32;2.30;;;;;;;6.49;100.00;100015.06;5151282;27;20057;-48
2022/05/19 01:17:07;;;;;;;7.93;2.95;;;;;;;6.52;100.00;100000.03;5150888;27;20051;-50
2022/05/19 01:19:38;;;;;;;2.38;2.08;;;;;;;6.38;100.00;100024.66;5151044;27;20051;-50
2022/05/19 01:22:12;;;;;;;4.90;2.08;;;;;;;6.27;100.00;100073.16;5150940;27;20394;-50
2022/05/19 01:24:49;;;;;;;3.72;2.10;;;;;;;6.34;100.00;100067.28;5150990;27;20055;-49
2022/05/19 01:27:16;;;;;;;2.72;2.03;;;;;;;6.27;100.00;100088.72;5150983;27;20055;-50
2022/05/19 01:29:42;;;;;;;3.75;2.10;;;;;;;6.30;100.00;100093.53;5150721;27;20058;-49
2022/05/19 01:32:22;;;;;;;4.55;2.20;;;;;;;6.23;100.00;100118.50;5150880;27;20050;-51
2022/05/19 01:34:49;;;;;;;8.43;3.28;;;;;;;6.24;100.00;100166.38;5150696;27;20054;-49
2022/05/19 01:37:15;;;;;;;7.13;2.50;;;;;;;6.12;100.00;100177.81;5151137;27;20122;-50
2022/05/19 01:39:46;;;;;;;6.25;2.13;;;;;;;5.93;100.00;100190.00;5150935;27;20051;-48
2022/05/19 01:42:26;;;;;;;5.57;1.90;;;;;;;6.17;100.00;100201.41;5150745;27;20144;-50
2022/05/19 01:44:59;;;;;;;4.15;2.08;;;;;;;6.01;100.00;100205.63;5150795;27;20058;-52
2022/05/19 01:47:32;;;;;;;5.95;2.13;;;;;;;5.88;100.00;100204.53;5150529;27;20055;-49
2022/05/19 01:50:05;;;;;;;3.05;2.00;;;;;;;5.94;100.00;100197.09;5150663;27;20066;-49
2022/05/19 01:52:39;;;;;;;6.22;2.75;;;;;;;6.02;100.00;100210.75;5150518;27;20054;-49
2022/05/19 01:55:12;;;;;;;4.28;1.83;;;;;;;5.99;100.00;100188.78;5150633;27;20058;-50
2022/05/19 01:57:47;;;;;;;9.60;1.70;;;;;;;6.24;100.00;100201.78;5151859;27;20100;-48
2022/05/19 02:00:17;;;;;;;5.00;2.00;;;;;;;6.17;100.00;100173.38;5154010;27;20054;-49
2022/05/19 02:02:51;;;;;;;3.25;2.00;;;;;;;6.12;100.00;100138.91;5154005;27;20051;-49
2022/05/19 02:05:27;;;;;;;6.68;1.83;;;;;;;6.17;100.00;100113.50;5154149;27;20058;-49
2022/05/19 02:07:56;;;;;;;2.03;1.33;;;;;;;5.87;100.00;100135.69;5154124;27;20141;-52
2022/05/19 02:10:26;;;;;;;1.80;1.67;;;;;;;5.98;100.00;100149.06;5153740;27;20058;-48
2022/05/19 02:12:56;;;;;;;4.63;1.92;;;;;;;5.84;100.00;100158.06;5153967;27;20055;-48
2022/05/19 02:15:25;;;;;;;4.30;1.70;;;;;;;6.32;100.00;100159.38;5153889;27;20714;-49
2022/05/19 02:17:52;;;;;;;3.38;1.60;;;;;;;6.36;100.00;100108.59;5153939;27;20554;-49
2022/05/19 02:20:22;;;;;;;4.72;2.03;;;;;;;6.38;100.00;100087.31;5153521;27;20051;-50
2022/05/19 02:22:49;;;;;;;3.20;2.47;;;;;;;6.26;100.00;100096.06;5153664;27;20066;-50
2022/05/19 02:25:20;;;;;;;1.60;1.50;;;;;;;6.00;100.00;100100.56;5153584;27;20783;-50
2022/05/19 02:27:54;;;;;;;3.88;1.52;;;;;;;6.13;100.00;100149.50;5153476;27;20070;-49
2022/05/19 02:30:25;;;;;;;2.58;1.55;;;;;;;6.13;100.00;100127.72;5153769;27;20054;-52
2022/05/19 02:32:51;;;;;;;2.92;1.58;;;;;;;6.38;100.00;100127.38;5153640;27;20046;-52
2022/05/19 02:35:18;;;;;;;5.32;1.67;;;;;;;6.59;100.00;100104.69;5153449;27;20077;-52
2022/05/19 02:37:44;;;;;;;4.95;1.83;;;;;;;6.74;100.00;100067.25;5153460;27;20051;-48
2022/05/19 02:40:12;;;;;;;4.18;1.77;;;;;;;6.89;100.00;100033.28;5153518;27;20593;-50
2022/05/19 02:42:39;;;;;;;3.60;1.75;;;;;;;7.57;100.00;100000.84;5153261;27;20054;-50
2022/05/19 02:45:08;;;;;;;3.65;1.50;;;;;;;8.29;100.00;99862.56;5153332;27;20055;-54
2022/05/19 02:47:34;;;;;;;3.85;1.80;;;;;;;8.79;100.00;99613.72;5153552;27;20054;-49
2022/05/19 02:50:01;;;;;;;3.47;1.60;;;;;;;9.41;100.00;99371.69;5153284;27;20054;-52
2022/05/19 02:52:27;;;;;;;3.95;1.63;;;;;;;9.92;100.00;99208.63;5153135;27;20055;-52
2022/05/19 02:54:53;;;;;;;1.90;1.40;;;;;;;10.09;100.00;99050.09;5153076;27;20055;-50
2022/05/19 02:57:19;;;;;;;10.10;1.92;;;;;;;10.44;100.00;98988.88;5153007;27;20047;-52
2022/05/19 02:59:45;;;;;;;3.35;1.70;;;;;;;10.56;100.00;98925.66;5152833;27;20066;-51
2022/05/19 03:02:12;;;;;;;2.58;1.33;;;;;;;10.58;100.00;98895.91;5153082;27;20047;-51
2022/05/19 03:04:39;;;;;;;7.28;1.70;;;;;;;10.68;100.00;98882.72;5153195;27;20516;-53
2022/05/19 03:07:06;;;;;;;4.63;1.70;;;;;;;11.04;100.00;98898.44;5153020;27;20055;-50
2022/05/19 03:09:32;;;;;;;4.22;1.60;;;;;;;11.21;100.00;98882.53;5152122;27;20054;-51
2022/05/19 03:11:58;;;;;;;4.65;1.58;;;;;;;11.08;100.00;98874.56;5152911;27;20053;-51
2022/05/19 03:14:24;;;;;;;4.18;1.83;;;;;;;11.14;100.00;98875.03;5152741;27;20500;-51
2022/05/19 03:16:50;;;;;;;6.22;1.70;;;;;;;11.03;100.00;98879.63;5152915;27;20054;-52
2022/05/19 03:19:17;;;;;;;4.97;1.42;;;;;;;11.04;100.00;98887.47;5152589;27;20051;-49
2022/05/19 03:21:45;;;;;;;3.60;1.80;;;;;;;11.13;100.00;98872.66;5152450;27;20047;-51
2022/05/19 03:24:11;;;;;;;3.80;1.83;;;;;;;10.92;100.00;98884.16;5152524;27;20565;-50
2022/05/19 03:26:38;;;;;;;9.43;3.00;;;;;;;10.69;100.00;98890.53;5152612;27;20050;-50
2022/05/19 03:29:04;;;;;;;4.18;1.42;;;;;;;10.71;100.00;98915.66;5152608;27;20062;-50
2022/05/19 03:31:32;;;;;;;5.93;1.65;;;;;;;11.14;100.00;98907.16;5152633;27;20053;-51
2022/05/19 03:33:58;;;;;;;4.55;1.88;;;;;;;11.98;100.00;98869.94;5152642;27;20058;-49
2022/05/19 03:36:25;;;;;;;3.33;1.45;;;;;;;12.22;100.00;98843.78;5152546;27;20054;-49
2022/05/19 03:38:52;;;;;;;6.53;1.58;;;;;;;13.01;100.00;98835.91;5152610;27;20465;-52
2022/05/19 03:41:18;;;;;;;2.30;1.40;;;;;;;13.37;100.00;98864.31;5152461;27;20070;-51
2022/05/19 03:43:45;;;;;;;5.75;1.77;;;;;;;13.58;100.00;98886.38;5152165;27;20057;-53
2022/05/19 03:46:12;;;;;;;5.25;2.00;;;;;;;14.43;100.00;98919.81;5152447;27;20070;-53
2022/05/19 03:48:39;;;;;;;8.27;1.70;;;;;;;14.48;100.00;98955.28;5152230;27;20054;-50
2022/05/19 03:51:10;;;;;;;7.55;1.90;;;;;;;14.86;100.00;98959.19;5152122;27;20712;-50
2022/05/19 03:53:36;;;;;;;3.83;1.60;;;;;;;14.68;100.00;98972.22;5151983;27;20528;-53
2022/05/19 03:56:03;;;;;;;5.45;1.88;;;;;;;14.54;100.00;98953.72;5152168;27;20513;-53
2022/05/19 03:58:29;;;;;;;5.65;2.03;;;;;;;14.16;100.00;98944.25;5151950;27;20047;-53
2022/05/19 04:00:55;;;;;;;4.47;2.10;;;;;;;13.42;100.00;98913.47;5152127;27;20055;-55
2022/05/19 04:03:21;;;;;;;2.83;1.50;;;;;;;13.47;100.00;98932.38;5152005;27;20422;-51
2022/05/19 04:05:48;;;;;;;5.40;1.60;;;;;;;13.34;100.00;98929.22;5152066;27;20382;-53
2022/05/19 04:08:14;;;;;;;7.43;1.60;;;;;;;13.69;100.00;98937.94;5151905;27;20054;-53
2022/05/19 04:10:44;;;;;;;4.22;1.55;;;;;;;14.05;100.00;98964.34;5151954;27;20055;-54
2022/05/19 04:13:11;;;;;;;4.75;1.40;;;;;;;14.32;100.00;99013.59;5151845;27;20050;-50
2022/05/19 04:15:37;;;;;;;8.27;2.10;;;;;;;14.32;100.00;99014.38;5151860;27;20102;-53
2022/05/19 04:18:03;;;;;;;6.22;1.60;;;;;;;13.97;100.00;98990.34;5151679;27;20444;-50
2022/05/19 04:20:30;;;;;;;2.03;1.50;;;;;;;13.68;100.00;98970.19;5150628;27;20792;-53
2022/05/19 04:22:56;;;;;;;4.38;1.77;;;;;;;13.37;100.00;98969.72;5151898;27;20063;-52
2022/05/19 04:25:23;;;;;;;2.28;1.58;;;;;;;13.22;100.00;98928.75;5151741;27;20054;-52
2022/05/19 04:27:50;;;;;;;7.25;1.80;;;;;;;13.12;100.00;98930.28;5151748;27;20068;-54
2022/05/19 04:30:17;;;;;;;6.10;1.45;;;;;;;13.14;100.00;98920.47;5151484;27;20058;-55
2022/05/19 04:32:43;;;;;;;3.45;1.73;;;;;;;13.22;100.00;98921.25;5151392;27;20541;-52
2022/05/19 04:35:10;;;;;;;4.22;1.67;;;;;;;13.42;100.00;98939.03;5151338;27;20088;-51
2022/05/19 04:37:36;;;;;;;6.20;1.50;;;;;;;14.18;100.00;98966.72;5151522;27;20054;-52
2022/05/19 04:40:04;;;;;;;3.35;1.63;;;;;;;14.33;100.00;99013.22;5151263;27;20426;-51
2022/05/19 04:42:30;;;;;;;2.95;1.60;;;;;;;14.69;100.00;99017.94;5151380;27;20053;-53
2022/05/19 04:44:58;;;;;;;5.65;1.40;;;;;;;15.36;100.00;99044.63;5151388;27;20051;-53
2022/05/19 04:47:24;;;;;;;6.38;1.80;;;;;;;16.08;100.00;99102.38;5151154;27;20058;-51
2022/05/19 04:49:50;;;;;;;7.20;1.80;;;;;;;17.08;100.00;99135.69;5151155;27;20047;-52
2022/05/19 04:52:17;;;;;;;2.60;1.77;;;;;;;17.72;100.00;99191.66;5151121;27;20544;-53
2022/05/19 04:54:43;;;;;;;4.32;1.90;;;;;;;17.88;100.00;99231.53;5150992;27;20046;-52
2022/05/19 04:57:10;;;;;;;8.32;2.47;;;;;;;18.20;100.00;99235.94;5151038;27;20058;-50
2022/05/19 04:59:37;;;;;;;2.33;1.77;;;;;;;17.51;100.00;99237.03;5151060;27;20471;-50
2022/05/19 05:02:04;;;;;;;4.03;1.92;;;;;;;17.41;100.00;99219.28;5150786;27;20534;-51
2022/05/19 05:04:30;;;;;;;5.80;1.83;;;;;;;17.60;100.00;99204.06;5151375;27;20055;-51
2022/05/19 05:06:57;;;;;;;6.28;1.80;;;;;;;17.34;100.00;99205.50;5150972;27;20063;-50
2022/05/19 05:09:23;;;;;;;4.80;1.92;;;;;;;17.25;100.00;99217.06;5150773;27;20050;-50
2022/05/19 05:11:50;;;;;;;8.80;1.95;;;;;;;16.94;100.00;99178.13;5150979;27;20054;-50
2022/05/19 05:14:17;;;;;;;5.95;2.20;;;;;;;17.26;100.00;99188.16;5150898;27;20055;-54
2022/05/19 05:16:43;;;;;;;10.73;1.95;;;;;;;17.53;100.00;99195.84;5150870;27;20097;-65
2022/05/19 05:19:10;;;;;;;7.18;2.00;;;;;;;17.61;100.00;99208.41;5150880;27;20057;-61
2022/05/19 05:21:36;;;;;;;9.40;2.70;;;;;;;17.94;100.00;99200.59;5151196;27;20063;-57
2022/05/19 05:24:02;;;;;;;9.68;4.15;;;;;;;18.12;100.00;99198.38;5151079;27;20058;-59
2022/05/19 05:26:28;;;;;;;2.75;1.70;;;;;;;17.74;100.00;99226.09;5151132;27;20123;-56
2022/05/19 05:28:54;;;;;;;7.88;1.90;;;;;;;17.76;100.00;99226.53;5151111;27;20051;-64
2022/05/19 05:31:21;;;;;;;6.70;2.00;;;;;;;18.35;100.00;99228.22;5151789;27;20480;-56
2022/05/19 05:33:47;;;;;;;4.97;1.88;;;;;;;18.70;100.00;99257.50;5154200;27;20055;-55
2022/05/19 05:36:14;;;;;;;6.28;1.77;;;;;;;18.02;100.00;99254.75;5154358;27;20073;-58
2022/05/19 05:38:41;;;;;;;5.18;2.25;;;;;;;17.54;100.00;99214.03;5154243;27;20054;-56
2022/05/19 05:41:07;;;;;;;6.10;2.00;;;;;;;17.52;100.00;99185.94;5154240;27;20421;-57
2022/05/19 05:43:35;;;;;;;6.00;2.15;;;;;;;18.17;100.00;99188.81;5154203;27;20494;-54
2022/05/19 05:46:06;;;;;;;7.95;2.90;;;;;;;18.73;100.00;99222.59;5153971;27;20054;-54
2022/05/19 05:48:36;;;;;;;5.72;2.00;;;;;;;18.89;100.00;99250.50;5154259;27;20058;-57
2022/05/19 05:51:03;;;;;;;6.82;1.63;;;;;;;19.43;100.00;99274.72;5154008;27;20054;-59
2022/05/19 05:53:30;;;;;;;2.78;1.60;;;;;;;19.54;100.00;99300.34;5154220;27;20051;-62
2022/05/19 05:55:56;;;;;;;6.03;1.98;;;;;;;20.34;100.00;99314.47;5154033;27;20062;-60
2022/05/19 05:58:23;;;;;;;5.78;1.60;;;;;;;19.82;100.00;99337.25;5154080;27;20403;-57
2022/05/19 06:00:49;;;;;;;6.72;1.73;;;;;;;19.05;100.00;99314.56;5153984;27;20583;-58
2022/05/19 06:03:15;;;;;;;5.35;1.58;;;;;;;18.71;100.00;99286.06;5153745;27;20061;-56
2022/05/19 06:05:42;;;;;;;4.35;1.70;;;;;;;18.17;100.00;99277.59;5154054;27;20050;-63
2022/05/19 06:08:08;;;;;;;3.05;1.50;;;;;;;18.28;100.00;99311.56;5153940;27;20058;-58
2022/05/19 06:10:36;;;;;;;6.97;2.08;;;;;;;17.74;100.00;99336.22;5153877;27;20515;-58
2022/05/19 06:13:02;;;;;;;4.35;1.13;;;;;;;17.63;100.00;99350.19;5153726;27;20845;-59
2022/05/19 06:15:28;;;;;;;3.28;2.00;;;;;;;17.62;100.00;99338.28;5154208;27;20046;-59
2022/05/19 06:17:54;;;;;;;3.38;1.45;;;;;;;17.59;100.00;99353.00;5154255;27;20050;-53
2022/05/19 06:20:21;;;;;;;2.70;1.27;;;;;;;17.65;100.00;99389.38;5153758;27;20058;-58
2022/05/19 06:22:48;;;;;;;5.70;1.20;;;;;;;18.01;100.00;99401.00;5153451;27;20537;-55
2022/05/19 06:25:16;;;;;;;1.90;1.10;;;;;;;17.95;100.00;99407.38;5153670;27;20498;-60
2022/05/19 06:27:43;;;;;;;1.45;1.35;;;;;;;18.17;100.00;99408.00;5153490;27;20050;-54
2022/05/19 06:30:12;;;;;;;5.47;1.55;;;;;;;18.86;100.00;99415.25;5153755;27;20051;-57
2022/05/19 06:32:38;;;;;;;4.20;1.30;;;;;;;18.68;100.00;99434.84;5153587;27;20059;-55
2022/05/19 06:35:07;;;;;;;7.82;1.88;;;;;;;18.34;100.00;99429.25;5153650;27;20055;-56
2022/05/19 06:37:33;;;;;;;3.58;1.35;;;;;;;18.54;100.00;99429.44;5153321;27;20059;-58
2022/05/19 06:39:59;;;;;;;4.63;1.60;;;;;;;18.44;100.00;99439.47;5153529;27;20051;-59
2022/05/19 06:42:25;;;;;;;5.53;1.85;;;;;;;17.93;100.00;99438.31;5153155;27;20054;-56
2022/05/19 06:44:52;;;;;;;4.95;1.48;;;;;;;17.64;100.00;99421.84;5153130;27;20525;-63
2022/05/19 06:47:18;;;;;;;1.45;1.13;;;;;;;17.61;100.00;99411.56;5153278;27;20150;-55
2022/05/19 06:49:46;;;;;;;2.45;1.10;;;;;;;17.18;100.00;99414.59;5153071;27;20058;-54
2022/05/19 06:52:13;;;;;;;1.67;0.90;;;;;;;17.13;100.00;99412.25;5153366;27;20103;-52
2022/05/19 06:54:41;;;;;;;3.35;1.13;;;;;;;17.04;100.00;99409.13;5153208;27;20102;-53
2022/05/19 06:57:07;;;;;;;3.42;2.22;;;;;;;16.87;100.00;99410.78;5153388;27;20054;-52
2022/05/19 06:59:33;;;;;;;6.13;3.88;;;;;;;16.93;100.00;99403.63;5153180;27;20054;-56
2022/05/19 07:02:00;;;;;;;2.33;1.42;;;;;;;16.88;100.00;99400.47;5153006;27;20077;-53
2022/05/19 07:04:26;;;;;;;5.50;1.90;;;;;;;17.06;100.00;99405.94;5152816;27;20074;-53
2022/05/19 07:06:52;;;;;;;3.63;1.25;;;;;;;17.23;100.00;99420.91;5152698;27;20050;-56
2022/05/19 07:09:19;;;;;;;8.05;4.82;;;;;;;17.26;100.00;99428.41;5152614;27;20147;-59
2022/05/19 07:11:45;;;;;;;2.58;1.40;;;;;;;17.06;100.00;99428.91;5152917;27;20059;-59
2022/05/19 07:14:12;;;;;;;2.40;1.10;;;;;;;16.86;100.00;99438.84;5152944;27;20050;-57
2022/05/19 07:16:38;;;;;;;3.67;1.70;;;;;;;16.67;100.00;99440.06;5152867;27;20066;-54
2022/05/19 07:21:49;;;;;;;4.95;1.38;;;;;;;16.15;100.00;99431.44;5152570;27;20057;-60
2022/05/19 07:24:18;;;;;;;3.17;1.27;;;;;;;16.16;100.00;99444.06;5152771;27;20054;-55
2022/05/19 07:26:44;;;;;;;3.08;1.52;;;;;;;15.97;100.00;99432.25;5152362;27;20115;-57
2022/05/19 07:29:11;;;;;;;2.20;1.05;;;;;;;16.32;100.00;99427.09;5152643;27;20438;-55
2022/05/19 07:31:37;;;;;;;2.35;1.02;;;;;;;16.25;100.00;99441.72;5152327;27;20051;-61
2022/05/19 07:34:04;;;;;;;5.45;1.70;;;;;;;16.19;100.00;99397.09;5152401;27;20123;-55
2022/05/19 07:36:32;;;;;;;4.10;0.90;;;;;;;16.46;100.00;99407.69;5152184;27;20531;-54
2022/05/19 07:38:59;;;;;;;4.45;1.75;;;;;;;16.35;100.00;99399.41;5152543;27;20134;-58
2022/05/19 07:41:26;;;;;;;4.53;1.33;;;;;;;16.67;97.22;99429.78;5152446;27;20057;-57
2022/05/19 07:43:53;;;;;;;4.15;1.50;;;;;;;17.77;93.13;99441.59;5152327;27;20432;-55
2022/05/19 07:46:20;;;;;;;2.15;1.40;;;;;;;18.54;83.41;99462.78;5152230;27;20066;-56
2022/05/19 07:48:46;;;;;;;2.67;1.40;;;;;;;18.67;79.43;99472.16;5152051;27;20061;-56
2022/05/19 07:51:13;;;;;;;5.63;1.98;;;;;;;19.27;76.12;99465.16;5152326;27;20050;-57
2022/05/19 07:53:39;;;;;;;3.90;1.50;;;;;;;19.82;73.36;99477.13;5152053;27;20057;-55
2022/05/19 07:56:06;;;;;;;3.42;1.73;;;;;;;20.91;71.59;99475.72;5152113;27;20511;-61
2022/05/19 07:58:32;;;;;;;4.95;1.13;;;;;;;21.72;69.89;99465.31;5151803;27;20073;-60
2022/05/19 08:01:00;;;;;;;1.67;1.10;;;;;;;21.64;70.26;99467.47;5151898;27;20057;-58
2022/05/19 08:03:26;;;;;;;3.05;1.63;;;;;;;21.00;70.23;99463.25;5151878;27;20413;-56
2022/05/19 08:05:53;;;;;;;3.17;1.42;;;;;;;20.87;67.14;99477.78;5151773;27;20506;-57
2022/05/19 08:08:20;;;;;;;2.85;1.00;;;;;;;20.56;68.72;99471.63;5151997;27;20050;-54
2022/05/19 08:10:46;;;;;;;3.33;1.15;;;;;;;20.27;68.48;99470.50;5151700;27;20066;-56
2022/05/19 08:15:56;;;;;;;6.45;1.17;;;;;;;20.15;65.60;99477.44;5106675;27;20050;-64
2022/05/19 08:18:24;;;;;;;2.28;1.40;;;;;;;20.31;70.36;99469.22;5141079;27;20051;-59
2022/05/19 08:20:52;;;;;;;4.22;1.30;;;;;;;19.95;67.02;99464.22;5131145;28;20047;-57
2022/05/19 08:23:23;;;;;;;21.05;1.90;;;;;;;20.43;67.91;99459.47;5130693;28;20070;-54
2022/05/19 08:25:50;;;;;;;1.55;1.27;;;;;;;20.76;68.42;99457.72;5142957;27;20055;-60
2022/05/19 08:28:18;;;;;;;2.03;1.10;;;;;;;21.60;68.21;99450.81;5151461;27;20056;-60
2022/05/19 08:30:47;;;;;;;3.60;1.20;;;;;;;21.67;65.74;99457.47;5151316;27;20051;-58
2022/05/19 08:33:13;;;;;;;4.93;1.38;;;;;;;21.48;65.07;99471.00;5151361;27;20451;-55
2022/05/19 08:35:40;;;;;;;5.05;1.30;;;;;;;21.67;68.75;99471.41;5151471;27;20065;-56
2022/05/19 08:38:06;;;;;;;3.50;1.25;;;;;;;21.95;64.59;99473.53;5151789;27;20059;-58
2022/05/19 08:40:38;;;;;;;2.15;1.15;;;;;;;22.30;64.50;99471.94;5151415;27;20061;-52
2022/05/19 08:43:04;;;;;;;4.50;1.27;;;;;;;23.18;62.21;99475.59;5151361;27;20569;-55
2022/05/19 08:45:35;;;;;;;1.17;1.08;;;;;;;23.16;62.33;99466.09;5151052;27;20527;-55
2022/05/19 08:48:05;;;;;;;7.07;1.50;;;;;;;23.13;62.50;99459.38;5151425;27;20051;-56
2022/05/19 08:50:39;;;;;;;1.67;1.30;;;;;;;23.47;62.41;99463.56;5151145;27;20050;-55
2022/05/19 08:53:06;;;;;;;1.85;1.10;;;;;;;23.50;62.33;99462.69;5151163;27;20055;-56
2022/05/19 08:55:34;;;;;;;3.53;1.00;;;;;;;22.77;62.79;99451.94;5151128;27;20051;-57
2022/05/19 08:58:13;;;;;;;2.55;1.17;;;;;;;22.19;60.79;99462.22;5151022;27;20528;-57
2022/05/19 09:00:44;;;;;;;2.22;0.90;;;;;;;21.81;64.66;99449.53;5151138;27;20051;-55
2022/05/19 09:03:18;;;;;;;4.72;0.95;;;;;;;21.69;64.51;99443.84;5150982;27;20050;-56
2022/05/19 09:06:17;;;;;;;3.75;1.33;;;;;;;21.03;66.49;99431.72;5150800;27;20425;-56
2022/05/19 09:09:02;;;;;;;5.20;1.20;;;;;;;21.01;65.90;99429.34;5154862;27;20046;-56
2022/05/19 09:11:38;;;;;;;3.50;1.27;;;;;;;20.95;64.55;99427.50;5154536;27;20092;-56
2022/05/19 09:14:15;;;;;;;7.45;0.93;;;;;;;21.47;67.62;99435.19;5154969;27;20062;-56
2022/05/19 09:16:42;;;;;;;1.98;1.08;;;;;;;21.89;65.85;99429.84;5154392;27;20061;-56
2022/05/19 09:19:12;;;;;;;2.30;1.05;;;;;;;22.50;63.95;99427.13;5154644;27;20093;-55
2022/05/19 09:21:41;;;;;;;1.08;0.88;;;;;;;22.38;59.00;99430.63;5154352;27;20053;-55
2022/05/19 09:24:08;;;;;;;6.88;1.40;;;;;;;22.45;60.81;99422.06;5154327;27;20066;-56
2022/05/19 09:26:50;;;;;;;9.02;1.35;;;;;;;21.97;60.49;99425.66;5154426;27;20061;-55
2022/05/19 09:29:19;;;;;;;2.42;1.40;;;;;;;22.17;59.92;99417.22;5154286;27;20422;-58
2022/05/19 09:31:50;;;;;;;3.25;1.20;;;;;;;22.42;61.89;99408.97;5154154;27;20054;-57
2022/05/19 09:34:16;;;;;;;2.92;1.20;;;;;;;22.21;60.14;99401.94;5154263;27;20059;-58
2022/05/19 09:37:00;;;;;;;3.78;1.83;;;;;;;21.99;68.32;99400.88;5154499;27;20058;-56
2022/05/19 09:39:33;;;;;;;3.05;1.50;;;;;;;21.35;66.99;99406.75;5154233;27;20077;-56
2022/05/19 09:42:05;;;;;;;2.13;1.50;;;;;;;21.57;66.87;99401.47;5154272;27;20054;-54
2022/05/19 09:44:34;;;;;;;1.83;1.33;;;;;;;20.97;67.71;99395.19;5154168;27;20051;-56
2022/05/19 09:47:14;;;;;;;3.28;1.63;;;;;;;21.00;70.96;99396.34;5154022;27;20058;-55
2022/05/19 09:49:44;;;;;;;4.65;1.60;;;;;;;20.79;71.84;99387.22;5153932;27;20510;-55
2022/05/19 09:52:17;;;;;;;2.55;1.50;;;;;;;21.21;72.04;99397.88;5153876;27;20548;-55
2022/05/19 09:54:51;;;;;;;3.17;1.45;;;;;;;21.13;76.13;99386.09;5153852;27;20051;-55
2022/05/19 09:57:27;;;;;;;2.05;1.20;;;;;;;21.67;73.41;99394.06;5154042;27;20114;-53
2022/05/19 09:59:58;;;;;;;3.70;1.20;;;;;;;22.18;72.72;99393.66;5153859;27;20058;-56
2022/05/19 10:02:31;;;;;;;4.85;1.63;;;;;;;21.61;77.12;99384.66;5153763;27;20054;-55
2022/05/19 10:05:00;;;;;;;2.33;1.80;;;;;;;22.54;76.37;99377.50;5153652;27;20051;-56
2022/05/19 10:07:29;;;;;;;4.85;2.00;;;;;;;23.04;75.46;99380.94;5153876;27;20300;-56
2022/05/19 10:09:57;;;;;;;3.03;1.60;;;;;;;23.32;70.99;99373.69;5153658;27;20055;-58
2022/05/19 10:12:28;;;;;;;2.70;2.08;;;;;;;23.09;70.78;99374.81;5153933;27;20133;-56
2022/05/19 10:15:00;;;;;;;2.30;1.40;;;;;;;23.79;74.27;99370.25;5153670;27;20110;-57
2022/05/19 10:17:41;;;;;;;2.25;1.30;;;;;;;23.89;74.17;99365.50;5152915;27;20074;-56
2022/05/19 10:20:12;;;;;;;7.20;1.30;;;;;;;23.95;76.30;99364.47;5153430;27;20062;-56
2022/05/19 10:22:58;;;;;;;6.88;2.45;;;;;;;23.63;76.50;99364.75;5153960;27;20051;-56
2022/05/19 10:25:44;;;;;;;3.55;2.47;;;;;;;23.53;76.75;99354.69;5153567;27;20051;-57
2022/05/19 10:31:19;;;;;;;4.30;2.35;;;;;;;22.92;78.91;99336.91;5153316;27;20050;-56
2022/05/19 10:33:59;;;;;;;2.53;1.93;;;;;;;22.47;78.73;99340.63;5153314;27;20050;-55
2022/05/19 10:36:49;;;;;;;6.55;1.63;;;;;;;22.52;77.46;99346.44;5153357;27;20295;-58
2022/05/19 10:39:31;;;;;;;5.78;1.77;;;;;;;22.14;79.00;99335.09;5153175;27;20051;-56
2022/05/19 10:42:09;;;;;;;4.18;2.25;;;;;;;21.74;81.29;99342.91;5153056;27;20055;-56
2022/05/19 10:45:02;;;;;;;2.83;1.50;;;;;;;21.51;84.63;99324.31;5153146;27;20054;-56
2022/05/19 10:47:40;;;;;;;3.80;1.52;;;;;;;21.29;87.76;99340.72;5139894;27;20054;-56
2022/05/19 10:50:20;;;;;;;4.80;1.65;;;;;;;21.24;85.33;99346.84;5152836;27;20051;-56
2022/05/19 10:53:07;;;;;;;6.93;2.10;;;;;;;21.38;91.42;99319.44;5152908;27;20051;-55
2022/05/19 10:55:40;;;;;;;3.60;1.52;;;;;;;21.43;90.64;99315.34;5153564;27;20829;-56
2022/05/19 10:58:24;;;;;;;4.13;1.65;;;;;;;21.53;88.01;99316.31;5152903;27;20062;-56
2022/05/19 11:01:01;;;;;;;6.15;1.55;;;;;;;21.42;89.91;99319.34;5152981;27;20054;-56
2022/05/19 11:03:50;;;;;;;5.45;3.28;;;;;;;21.59;98.33;99298.63;5152773;27;20086;-56
2022/05/19 11:06:42;;;;;;;9.43;1.77;;;;;;;21.55;92.88;99294.34;5152895;27;20066;-56
2022/05/19 11:09:17;;;;;;;4.60;2.05;;;;;;;21.62;93.79;99299.72;5135376;27;20104;-56
2022/05/19 11:11:54;;;;;;;4.47;2.17;;;;;;;21.92;94.41;99292.19;5152880;27;20083;-56
2022/05/19 11:14:30;;;;;;;6.65;2.05;;;;;;;21.84;97.35;99292.38;5152671;27;20517;-56
2022/05/19 11:17:00;;;;;;;1.95;1.48;;;;;;;21.71;92.67;99290.75;5152577;27;20058;-56
2022/05/19 11:19:31;;;;;;;5.57;1.90;;;;;;;22.19;94.55;99298.28;5152547;27;20050;-57
2022/05/19 11:22:04;;;;;;;5.32;1.63;;;;;;;21.92;90.66;99301.34;5152677;27;20144;-55
2022/05/19 11:24:35;;;;;;;10.27;1.87;;;;;;;21.66;96.58;99289.28;5152415;27;20057;-55
2022/05/19 11:27:11;;;;;;;5.55;2.05;;;;;;;21.51;98.04;99283.25;5152391;27;20505;-54
2022/05/19 11:29:43;;;;;;;5.55;3.00;;;;;;;21.48;94.87;99280.56;5152230;27;20050;-57
2022/05/19 11:32:16;;;;;;;4.18;1.95;;;;;;;21.21;99.41;99270.41;5152324;27;20050;-55
2022/05/19 11:34:48;;;;;;;5.68;1.65;;;;;;;21.44;95.64;99269.50;5152189;27;20051;-55
2022/05/19 11:37:23;;;;;;;4.03;1.65;;;;;;;21.44;93.81;99279.88;5152366;27;20050;-56
2022/05/19 11:40:00;;;;;;;3.92;1.95;;;;;;;21.76;98.45;99265.91;5152241;27;20098;-55
2022/05/19 11:42:34;;;;;;;4.97;1.92;;;;;;;21.69;92.97;99268.06;5152072;27;20054;-55
2022/05/19 11:45:05;;;;;;;6.32;1.85;;;;;;;21.76;95.68;99274.28;5152260;27;20077;-54
2022/05/19 11:56:12;;;;;;;8.45;1.75;;;;;;;21.18;95.78;99260.13;5038073;28;20055;-55
2022/05/19 11:58:38;;;;;;;5.25;1.95;;;;;;;21.10;94.00;99267.88;5117318;27;20051;-55